EGNV/MME METAR and TAF weather

Enter ICAO airport designator
Station Type Date Time Source
EGNV METAR 2021/03/05 17:50 UTC NOAA

EGNV 051750Z 01004KT 9999 FEW020 BKN042 04/M02 Q1035


Station Type Date Time Source
EGNV Decoded METAR 2021/03/05 17:50 UTC NOAA

Tees-Side, United Kingdom (EGNV) 54-31N 001-25W
Mar 05, 2021 - 12:50 PM EST / 2021.03.05 1750 UTC
Wind: from the N (010 degrees) at 5 MPH (4 KT):0
Visibility: greater than 7 mile(s):0
Sky conditions: mostly cloudy
Temperature: 39 F (4 C)
Dew Point: 28 F (-2 C)
Relative Humidity: 64%
Pressure (altimeter): 30.56 in. Hg (1035 hPa)
ob: EGNV 051750Z 01004KT 9999 FEW020 BKN042 04/M02 Q1035
cycle: 18

Station Type Date Time Source
EGNV TAF 2021/02/07 18:06 UTC NOAA

TAF EGNV 071654Z 0718/0820 07012KT 9999 SCT016
TEMPO 0718/0820 08015G28KT 2000 -SN BKN005

Example: see airport list